createdAt,value
2017-09-15T00:00:30.702Z,88.68
2017-09-15T00:01:30.689Z,88.97
2017-09-15T00:02:30.690Z,88.59
2017-09-15T00:03:30.637Z,88.97
2017-09-15T00:04:30.616Z,88.97
2017-09-15T00:05:30.592Z,88.59
2017-09-15T00:06:30.573Z,89.06
2017-09-15T00:07:30.572Z,88.78
2017-09-15T00:08:30.568Z,88.68
2017-09-15T00:09:30.559Z,88.59
2017-09-15T00:10:30.528Z,89.06
2017-09-15T00:11:30.550Z,88.97
2017-09-15T00:12:30.486Z,88.59
2017-09-15T00:13:30.484Z,88.87
2017-09-15T00:14:30.465Z,88.49
2017-09-15T00:15:30.444Z,88.87
2017-09-15T00:16:30.484Z,88.97
2017-09-15T00:17:30.406Z,88.97
2017-09-15T00:18:30.384Z,88.97
2017-09-15T00:19:30.362Z,88.59
2017-09-15T00:20:30.338Z,88.78
2017-09-15T00:21:30.317Z,89.16
2017-09-15T00:22:30.317Z,88.78
2017-09-15T00:23:30.292Z,89.16
2017-09-15T00:24:30.275Z,88.97
2017-09-15T00:25:30.271Z,89.06
2017-09-15T00:26:30.252Z,89.06
2017-09-15T00:27:30.233Z,89.06
2017-09-15T00:28:30.214Z,88.78
2017-09-15T00:29:30.192Z,88.68
2017-09-15T00:30:30.171Z,88.87
2017-09-15T00:31:30.148Z,88.78
2017-09-15T00:32:30.148Z,88.78
2017-09-15T00:33:30.127Z,88.97
2017-09-15T00:34:30.068Z,88.78
2017-09-15T00:35:30.086Z,88.68
2017-09-15T00:36:30.066Z,88.78
2017-09-15T00:37:30.059Z,88.68
2017-09-15T00:38:30.041Z,88.78
2017-09-15T00:39:30.022Z,88.97
2017-09-15T00:40:30.003Z,88.68
2017-09-15T00:41:29.976Z,88.78
2017-09-15T00:42:29.975Z,88.87
2017-09-15T00:43:29.957Z,88.78
2017-09-15T00:44:29.919Z,88.87
2017-09-15T00:45:29.912Z,88.97
2017-09-15T00:46:29.892Z,88.59
2017-09-15T00:47:29.872Z,88.97
2017-09-15T00:48:29.853Z,89.16
2017-09-15T00:49:29.831Z,89.16
2017-09-15T00:50:29.809Z,88.97
2017-09-15T00:51:29.805Z,89.35
2017-09-15T00:52:29.785Z,89.06
2017-09-15T00:53:29.781Z,89.06
2017-09-15T00:54:29.744Z,89.25
2017-09-15T00:55:29.740Z,89.25
2017-09-15T00:56:29.719Z,88.97
2017-09-15T00:57:29.700Z,88.97
2017-09-15T00:58:29.675Z,88.78
2017-09-15T00:59:29.660Z,89.16
2017-09-15T01:00:29.632Z,89.44
2017-09-15T01:01:29.619Z,89.35
2017-09-15T01:02:29.615Z,89.06
2017-09-15T01:03:29.637Z,89.44
2017-09-15T01:04:29.572Z,88.78
2017-09-15T01:05:29.571Z,89.06
2017-09-15T01:06:29.550Z,88.59
2017-09-15T01:07:29.531Z,88.59
2017-09-15T01:08:29.506Z,88.87
2017-09-15T01:09:29.487Z,88.78
2017-09-15T01:10:29.514Z,88.59
2017-09-15T01:11:29.444Z,88.78
2017-09-15T01:12:29.424Z,88.78
2017-09-15T01:13:29.405Z,88.68
2017-09-15T01:14:29.403Z,88.78
2017-09-15T01:15:29.429Z,88.78
2017-09-15T01:16:29.361Z,88.97
2017-09-15T01:17:29.338Z,88.68
2017-09-15T01:18:29.317Z,88.68
2017-09-15T01:19:29.301Z,88.59
2017-09-15T01:20:29.295Z,88.59
2017-09-15T01:21:29.231Z,88.97
2017-09-15T01:22:29.232Z,88.68
2017-09-15T01:23:29.213Z,88.87
2017-09-15T01:24:29.211Z,88.97
2017-09-15T01:25:29.210Z,88.78
2017-09-15T01:26:29.169Z,88.45
2017-09-15T01:27:29.170Z,88.55
2017-09-15T01:28:29.128Z,88.93
2017-09-15T01:29:29.126Z,88.83
2017-09-15T01:30:29.102Z,88.55
2017-09-15T01:31:29.089Z,88.59
2017-09-15T01:32:29.083Z,88.74
2017-09-15T01:33:29.059Z,88.93
2017-09-15T01:34:29.040Z,88.64
2017-09-15T01:35:29.083Z,88.93
2017-09-15T01:36:29.000Z,88.55
2017-09-15T01:37:28.996Z,88.83
2017-09-15T01:38:28.957Z,88.93
2017-09-15T01:39:28.953Z,88.74
2017-09-15T01:40:28.912Z,88.74
2017-09-15T01:41:28.913Z,88.74
2017-09-15T01:42:28.896Z,88.74
2017-09-15T01:43:28.876Z,88.74
2017-09-15T01:44:28.848Z,89.02
2017-09-15T01:45:28.830Z,88.93
2017-09-15T01:46:28.829Z,89.02
2017-09-15T01:47:28.808Z,89.12
2017-09-15T01:48:28.849Z,88.74
2017-09-15T01:49:28.764Z,88.93
2017-09-15T01:50:28.807Z,89.31
2017-09-15T01:51:28.727Z,88.93
2017-09-15T01:52:28.722Z,88.83
2017-09-15T01:53:28.679Z,89.02
2017-09-15T01:54:28.678Z,89.02
2017-09-15T01:55:28.720Z,89.31
2017-09-15T01:56:28.699Z,89.40
2017-09-15T01:57:28.614Z,88.93
2017-09-15T01:58:28.618Z,89.02
2017-09-15T01:59:28.594Z,88.93
2017-09-15T02:00:28.575Z,89.40
2017-09-15T02:01:28.550Z,89.40
2017-09-15T02:02:28.509Z,89.21
2017-09-15T02:03:28.508Z,89.12
2017-09-15T02:04:28.490Z,89.21
2017-09-15T02:05:28.549Z,89.31
2017-09-15T02:06:28.447Z,89.59
2017-09-15T02:07:28.449Z,89.02
2017-09-15T02:08:28.426Z,88.93
2017-09-15T02:09:28.388Z,88.55
2017-09-15T02:10:28.385Z,88.55
2017-09-15T02:11:28.367Z,88.93
2017-09-15T02:12:28.341Z,89.21
2017-09-15T02:13:28.343Z,89.02
2017-09-15T02:14:28.324Z,89.02
2017-09-15T02:15:28.296Z,89.31
2017-09-15T02:16:28.257Z,89.02
2017-09-15T02:17:28.233Z,89.21
2017-09-15T02:18:28.231Z,89.02
2017-09-15T02:19:28.215Z,89.12
2017-09-15T02:20:28.210Z,89.50
2017-09-15T02:21:28.192Z,89.50
2017-09-15T02:22:28.231Z,89.40
2017-09-15T02:23:28.145Z,89.40
2017-09-15T02:24:28.169Z,89.50
2017-09-15T02:25:28.085Z,89.40
2017-09-15T02:26:28.065Z,89.02
2017-09-15T02:27:28.085Z,89.40
2017-09-15T02:28:28.062Z,89.40
2017-09-15T02:29:28.110Z,89.50
2017-09-15T02:30:28.039Z,89.21
2017-09-15T02:31:28.001Z,89.21
2017-09-15T02:32:28.004Z,89.40
2017-09-15T02:33:27.959Z,89.59
2017-09-15T02:34:28.003Z,89.87
2017-09-15T02:35:27.934Z,89.87
2017-09-15T02:36:27.916Z,89.59
2017-09-15T02:37:27.892Z,89.40
2017-09-15T02:38:27.874Z,90.06
2017-09-15T02:39:27.912Z,89.50
2017-09-15T02:40:27.832Z,89.59
2017-09-15T02:41:27.827Z,89.59
2017-09-15T02:42:27.804Z,89.59
2017-09-15T02:43:27.747Z,89.87
2017-09-15T02:44:27.825Z,89.40
2017-09-15T02:45:27.744Z,89.31
2017-09-15T02:46:27.701Z,89.59
2017-09-15T02:47:27.703Z,89.78
2017-09-15T02:48:27.678Z,89.78
2017-09-15T02:49:27.662Z,89.69
2017-09-15T02:50:27.639Z,89.69
2017-09-15T02:51:27.640Z,89.69
2017-09-15T02:52:27.625Z,89.50
2017-09-15T02:53:27.643Z,89.78
2017-09-15T02:54:27.578Z,89.59
2017-09-15T02:55:27.558Z,89.69
2017-09-15T02:56:27.552Z,89.78
2017-09-15T02:57:27.531Z,89.78
2017-09-15T02:58:27.507Z,89.87
2017-09-15T02:59:27.476Z,89.12
2017-09-15T03:00:27.491Z,89.87
2017-09-15T03:01:27.448Z,89.02
2017-09-15T03:02:27.425Z,89.31
2017-09-15T03:03:27.405Z,89.40
2017-09-15T03:04:27.388Z,89.50
2017-09-15T03:05:27.383Z,89.21
2017-09-15T03:06:27.406Z,89.59
2017-09-15T03:07:27.340Z,89.50
2017-09-15T03:08:27.380Z,89.59
2017-09-15T03:09:27.315Z,89.59
2017-09-15T03:10:27.278Z,89.40
2017-09-15T03:11:27.320Z,89.21
2017-09-15T03:12:27.214Z,89.21
2017-09-15T03:13:27.215Z,89.21
2017-09-15T03:14:27.216Z,89.59
2017-09-15T03:15:27.171Z,89.31
2017-09-15T03:16:27.173Z,89.40
2017-09-15T03:17:27.210Z,89.40
2017-09-15T03:18:27.109Z,89.50
2017-09-15T03:19:27.171Z,89.87
2017-09-15T03:20:27.103Z,89.21
2017-09-15T03:21:27.084Z,89.21
2017-09-15T03:22:27.041Z,89.50
2017-09-15T03:23:27.020Z,89.40
2017-09-15T03:24:27.018Z,89.40
2017-09-15T03:25:27.070Z,89.40
2017-09-15T03:26:26.979Z,89.40
2017-09-15T03:27:26.959Z,88.93
2017-09-15T03:28:26.956Z,89.02
2017-09-15T03:29:26.915Z,89.02
2017-09-15T03:30:26.897Z,89.21
2017-09-15T03:31:26.894Z,89.87
2017-09-15T03:32:26.874Z,90.06
2017-09-15T03:33:26.853Z,89.97
2017-09-15T03:34:26.851Z,90.06
2017-09-15T03:35:26.835Z,89.78
2017-09-15T03:36:26.796Z,89.02
2017-09-15T03:37:26.768Z,90.06
2017-09-15T03:38:26.750Z,89.12
2017-09-15T03:39:26.727Z,89.59
2017-09-15T03:40:26.703Z,89.97
2017-09-15T03:41:26.700Z,89.59
2017-09-15T03:42:26.683Z,89.59
2017-09-15T03:43:26.742Z,89.40
2017-09-15T03:44:26.642Z,89.31
2017-09-15T03:45:26.619Z,89.87
2017-09-15T03:46:26.600Z,89.31
2017-09-15T03:47:26.596Z,89.78
2017-09-15T03:48:26.573Z,90.25
2017-09-15T03:49:26.556Z,89.87
2017-09-15T03:50:26.535Z,89.69
2017-09-15T03:51:26.536Z,89.21
2017-09-15T03:52:26.511Z,89.40
2017-09-15T03:53:26.440Z,89.21
2017-09-15T03:54:26.450Z,89.97
2017-09-15T03:55:26.445Z,89.87
2017-09-15T03:56:26.425Z,89.59
2017-09-15T03:57:26.405Z,89.87
2017-09-15T03:58:26.383Z,89.97
2017-09-15T03:59:26.361Z,89.21
2017-09-15T04:00:26.341Z,89.59
2017-09-15T04:01:26.324Z,89.78
2017-09-15T04:02:26.301Z,89.69
2017-09-15T04:03:26.302Z,89.40
2017-09-15T04:04:26.238Z,89.87
2017-09-15T04:05:26.254Z,89.78
2017-09-15T04:06:26.145Z,89.69
2017-09-15T04:07:26.219Z,90.06
2017-09-15T04:08:26.194Z,90.06
2017-09-15T04:09:26.173Z,90.25
2017-09-15T04:10:26.177Z,90.06
2017-09-15T04:11:26.197Z,89.87
2017-09-15T04:12:26.132Z,89.97
2017-09-15T04:13:26.105Z,90.16
2017-09-15T04:14:26.083Z,90.25
2017-09-15T04:15:26.089Z,90.16
2017-09-15T04:16:26.021Z,90.25
2017-09-15T04:17:25.981Z,90.16
2017-09-15T04:18:26.002Z,90.44
2017-09-15T04:19:26.002Z,90.25
2017-09-15T04:20:25.980Z,90.34
2017-09-15T04:21:25.923Z,90.06
2017-09-15T04:22:25.935Z,89.78
2017-09-15T04:23:25.919Z,89.40
2017-09-15T04:24:25.894Z,89.87
2017-09-15T04:25:25.807Z,89.87
2017-09-15T04:26:25.854Z,89.59
2017-09-15T04:27:25.850Z,89.87
2017-09-15T04:28:25.815Z,89.69
2017-09-15T04:29:25.811Z,89.50
2017-09-15T04:30:25.787Z,89.59
2017-09-15T04:31:25.786Z,89.40
2017-09-15T04:32:25.751Z,89.69
2017-09-15T04:33:25.724Z,89.87
2017-09-15T04:34:25.769Z,89.87
2017-09-15T04:35:25.617Z,89.97
2017-09-15T04:36:25.685Z,89.87
2017-09-15T04:37:25.638Z,89.69
2017-09-15T04:38:25.616Z,90.16
2017-09-15T04:39:25.629Z,89.59
2017-09-15T04:40:25.574Z,90.06
2017-09-15T04:41:25.514Z,89.59
2017-09-15T04:42:25.493Z,89.50
2017-09-15T04:43:25.514Z,89.78
2017-09-15T04:44:25.434Z,89.59
2017-09-15T04:45:25.490Z,89.40
2017-09-15T04:46:25.403Z,89.21
2017-09-15T04:47:25.453Z,89.31
2017-09-15T04:48:25.470Z,89.59
2017-09-15T04:49:25.349Z,89.50
2017-09-15T04:50:25.475Z,89.59
2017-09-15T04:51:25.390Z,89.31
2017-09-15T04:52:25.385Z,89.12
2017-09-15T04:53:25.384Z,89.83
2017-09-15T04:54:25.342Z,89.21
2017-09-15T04:55:25.340Z,89.50
2017-09-15T04:56:25.306Z,89.78
2017-09-15T04:57:25.282Z,89.02
2017-09-15T04:58:25.261Z,89.87
2017-09-15T04:59:25.237Z,89.40
2017-09-15T05:00:25.255Z,89.78
2017-09-15T05:01:25.275Z,89.78
2017-09-15T05:02:25.171Z,89.59
2017-09-15T05:03:25.089Z,89.78
2017-09-15T05:04:25.152Z,89.69
2017-09-15T05:05:25.131Z,89.87
2017-09-15T05:06:25.109Z,89.69
2017-09-15T05:07:25.149Z,89.87
2017-09-15T05:08:25.067Z,89.50
2017-09-15T05:09:25.045Z,89.50
2017-09-15T05:10:25.041Z,89.87
2017-09-15T05:11:25.024Z,89.87
2017-09-15T05:12:24.997Z,89.02
2017-09-15T05:13:24.978Z,89.87
2017-09-15T05:14:24.958Z,89.40
2017-09-15T05:15:24.938Z,89.40
2017-09-15T05:16:24.918Z,89.78
2017-09-15T05:17:24.895Z,89.97
2017-09-15T05:18:24.896Z,89.69
2017-09-15T05:19:24.870Z,89.40
2017-09-15T05:20:24.850Z,89.59
2017-09-15T05:21:24.852Z,89.31
2017-09-15T05:22:24.810Z,89.31
2017-09-15T05:23:24.790Z,89.40
2017-09-15T05:24:24.709Z,90.06
2017-09-15T05:25:24.768Z,89.69
2017-09-15T05:26:24.747Z,90.25
2017-09-15T05:27:24.732Z,89.21
2017-09-15T05:28:24.701Z,89.40
2017-09-15T05:29:24.683Z,89.78
2017-09-15T05:30:24.661Z,88.93
2017-09-15T05:31:24.646Z,89.78
2017-09-15T05:32:24.685Z,89.21
2017-09-15T05:33:24.618Z,89.97
2017-09-15T05:34:24.599Z,89.21
2017-09-15T05:35:24.578Z,89.21
2017-09-15T05:36:24.534Z,89.31
2017-09-15T05:37:24.556Z,89.21
2017-09-15T05:38:24.536Z,89.21
2017-09-15T05:39:24.518Z,89.78
2017-09-15T05:40:24.492Z,89.40
2017-09-15T05:41:24.472Z,89.50
2017-09-15T05:42:24.512Z,89.21
2017-09-15T05:43:24.433Z,89.21
2017-09-15T05:44:24.403Z,89.40
2017-09-15T05:45:24.406Z,88.93
2017-09-15T05:46:24.284Z,89.40
2017-09-15T05:47:24.345Z,89.40
2017-09-15T05:48:24.323Z,89.40
2017-09-15T05:49:24.303Z,89.31
2017-09-15T05:50:24.300Z,89.02
2017-09-15T05:51:24.278Z,89.40
2017-09-15T05:52:24.257Z,89.40
2017-09-15T05:53:24.234Z,89.02
2017-09-15T05:54:24.240Z,89.59
2017-09-15T05:55:24.193Z,89.40
2017-09-15T05:56:24.172Z,89.50
2017-09-15T05:57:24.152Z,89.87
2017-09-15T05:58:24.144Z,89.87
2017-09-15T05:59:24.127Z,89.78
2017-09-15T06:00:24.109Z,89.40
2017-09-15T06:01:24.083Z,89.12
2017-09-15T06:02:24.070Z,88.45
2017-09-15T06:03:24.045Z,88.93
2017-09-15T06:04:24.046Z,88.26
2017-09-15T06:05:24.026Z,87.51
2017-09-15T06:06:24.004Z,87.41
2017-09-15T06:07:24.045Z,90.44
2017-09-15T06:08:24.029Z,93.32
2017-09-15T06:09:23.942Z,93.13
2017-09-15T06:10:23.940Z,92.10
2017-09-15T06:11:23.825Z,94.23
2017-09-15T06:12:23.918Z,95.45
2017-09-15T06:13:23.859Z,93.13
2017-09-15T06:14:23.877Z,89.34
2017-09-15T06:15:23.853Z,84.08
2017-09-15T06:16:23.835Z,84.94
2017-09-15T06:17:23.817Z,82.98
2017-09-15T06:18:23.792Z,75.36
2017-09-15T06:19:23.790Z,74.32
2017-09-15T06:20:23.747Z,75.02
2017-09-15T06:21:23.753Z,79.10
2017-09-15T06:22:23.747Z,78.15
2017-09-15T06:23:23.772Z,74.49
2017-09-15T06:24:23.770Z,71.07
2017-09-15T06:25:23.624Z,68.76
2017-09-15T06:26:23.686Z,68.76
2017-09-15T06:27:23.665Z,71.60
2017-09-15T06:28:23.644Z,73.22
2017-09-15T06:29:23.641Z,72.89
2017-09-15T06:30:23.666Z,73.84
2017-09-15T06:31:23.625Z,75.36
2017-09-15T06:32:23.661Z,75.17
2017-09-15T06:33:23.490Z,77.16
2017-09-15T06:34:23.557Z,78.87
2017-09-15T06:35:23.556Z,78.34
2017-09-15T06:36:23.534Z,74.92
2017-09-15T06:37:23.521Z,74.35
2017-09-15T06:38:23.475Z,73.60
2017-09-15T06:39:23.473Z,73.03
2017-09-15T06:40:23.456Z,74.92
2017-09-15T06:41:23.448Z,74.16
2017-09-15T06:42:23.430Z,73.12
2017-09-15T06:43:23.427Z,73.46
2017-09-15T06:44:23.407Z,74.73
2017-09-15T06:45:23.408Z,76.92
2017-09-15T06:46:23.386Z,75.24
2017-09-15T06:47:23.362Z,76.14
2017-09-15T06:48:23.368Z,71.58
2017-09-15T06:49:23.344Z,69.08
2017-09-15T06:50:23.322Z,66.52
2017-09-15T06:51:23.303Z,64.33
2017-09-15T06:52:23.299Z,67.05
2017-09-15T06:53:23.282Z,66.29
2017-09-15T06:54:23.258Z,68.60
2017-09-15T06:55:23.257Z,70.59
2017-09-15T06:56:23.234Z,70.78
2017-09-15T06:57:23.235Z,70.75
2017-09-15T06:58:23.218Z,70.21
2017-09-15T06:59:23.138Z,69.46
2017-09-15T07:00:23.192Z,69.61
2017-09-15T07:01:23.129Z,69.42
2017-09-15T07:02:23.129Z,70.09
2017-09-15T07:03:23.090Z,69.99
2017-09-15T07:04:23.076Z,70.15
2017-09-15T07:05:23.112Z,71.76
2017-09-15T07:06:23.091Z,72.04
2017-09-15T07:07:23.045Z,72.99
2017-09-15T07:08:23.048Z,70.81
2017-09-15T07:09:23.045Z,69.90
2017-09-15T07:10:22.985Z,69.33
2017-09-15T07:11:23.001Z,68.76
2017-09-15T07:12:23.007Z,68.13
2017-09-15T07:13:23.002Z,68.41
2017-09-15T07:14:22.923Z,66.33
2017-09-15T07:15:22.980Z,64.24
2017-09-15T07:16:22.958Z,66.46
2017-09-15T07:17:22.944Z,68.58
2017-09-15T07:18:22.983Z,64.02
2017-09-15T07:19:22.920Z,59.58
2017-09-15T07:20:22.918Z,59.30
2017-09-15T07:21:22.902Z,57.24
2017-09-15T07:22:22.904Z,55.81
2017-09-15T07:23:22.838Z,55.43
2017-09-15T07:24:22.874Z,56.31
2017-09-15T07:25:22.813Z,52.34
2017-09-15T07:26:22.835Z,50.25
2017-09-15T07:27:22.856Z,51.23
2017-09-15T07:28:22.836Z,48.58
2017-09-15T07:29:22.792Z,47.75
2017-09-15T07:30:22.773Z,47.20
2017-09-15T07:31:22.728Z,46.68
2017-09-15T07:32:22.768Z,45.25
2017-09-15T07:33:22.725Z,44.31
2017-09-15T07:34:22.728Z,39.64
2017-09-15T07:35:22.688Z,39.15
2017-09-15T07:36:22.770Z,37.07
2017-09-15T07:37:22.690Z,35.18
2017-09-15T07:38:22.685Z,35.86
2017-09-15T07:39:22.599Z,36.15
2017-09-15T07:40:22.644Z,35.12
2017-09-15T07:41:22.625Z,36.08
2017-09-15T07:42:22.625Z,34.16
2017-09-15T07:43:22.606Z,34.08
2017-09-15T07:44:22.600Z,33.01
2017-09-15T07:45:22.581Z,31.21
2017-09-15T07:46:22.561Z,32.38
2017-09-15T07:47:22.577Z,31.63
2017-09-15T07:48:22.459Z,32.49
2017-09-15T07:49:22.557Z,31.45
2017-09-15T07:50:22.484Z,32.60
2017-09-15T07:51:22.517Z,32.78
2017-09-15T07:52:22.520Z,31.42
2017-09-15T07:53:22.513Z,32.59
2017-09-15T07:54:22.476Z,33.58
2017-09-15T07:55:22.560Z,31.45
2017-09-15T07:56:22.471Z,30.22
2017-09-15T07:57:22.473Z,29.53
2017-09-15T07:58:22.451Z,29.13
2017-09-15T07:59:22.434Z,30.00
2017-09-15T08:00:22.432Z,31.32
2017-09-15T08:01:22.390Z,31.53
2017-09-15T08:02:22.432Z,30.67
2017-09-15T08:03:22.435Z,30.09
2017-09-15T08:04:22.412Z,29.71
2017-09-15T08:05:22.410Z,31.51
2017-09-15T08:06:22.410Z,32.38
2017-09-15T08:07:22.394Z,31.32
2017-09-15T08:08:22.407Z,29.88
2017-09-15T08:09:22.347Z,29.88
2017-09-15T08:10:22.408Z,30.06
2017-09-15T08:11:22.408Z,31.02
2017-09-15T08:12:22.347Z,31.77
2017-09-15T08:13:22.408Z,32.62
2017-09-15T08:14:22.391Z,34.53
2017-09-15T08:15:22.409Z,36.54
2017-09-15T08:16:22.366Z,36.14
2017-09-15T08:17:22.365Z,36.02
2017-09-15T08:18:22.391Z,35.55
2017-09-15T08:19:22.348Z,37.34
2017-09-15T08:20:22.407Z,39.23
2017-09-15T08:21:22.367Z,39.04
2017-09-15T08:22:22.351Z,41.12
2017-09-15T08:23:22.367Z,46.15
2017-09-15T08:24:22.430Z,43.29
2017-09-15T08:25:22.411Z,43.46
2017-09-15T08:26:22.429Z,44.01
2017-09-15T08:27:22.413Z,44.78
2017-09-15T08:28:22.429Z,48.11
2017-09-15T08:29:22.368Z,48.49
2017-09-15T08:30:22.449Z,48.47
2017-09-15T08:31:22.387Z,49.61
2017-09-15T08:32:22.391Z,52.94
2017-09-15T08:33:22.436Z,52.56
2017-09-15T08:34:22.436Z,53.11
2017-09-15T08:35:22.434Z,54.35
2017-09-15T08:36:22.412Z,55.65
2017-09-15T08:37:22.433Z,52.89
2017-09-15T08:38:22.449Z,52.92
2017-09-15T08:39:22.455Z,51.87
2017-09-15T08:40:22.411Z,52.03
2017-09-15T08:41:22.389Z,52.03
2017-09-15T08:42:22.452Z,51.75
2017-09-15T08:43:22.386Z,53.84
2017-09-15T08:44:22.449Z,52.13
2017-09-15T08:45:22.431Z,50.51
2017-09-15T08:46:22.429Z,53.65
2017-09-15T08:47:22.430Z,52.98
2017-09-15T08:48:22.390Z,52.41
2017-09-15T08:49:22.429Z,53.08
2017-09-15T08:50:22.341Z,53.55
2017-09-15T08:51:22.343Z,52.80
2017-09-15T08:52:22.337Z,55.27
2017-09-15T08:53:22.332Z,52.03
2017-09-15T08:54:22.370Z,49.87
2017-09-15T08:55:22.314Z,52.15
2017-09-15T08:56:22.358Z,50.51
2017-09-15T08:57:22.303Z,49.56
2017-09-15T08:58:22.294Z,52.89
2017-09-15T08:59:22.339Z,49.82
2017-09-15T09:00:22.280Z,52.76
2017-09-15T09:01:22.279Z,54.10
2017-09-15T09:02:22.264Z,55.43
2017-09-15T09:03:22.259Z,52.36
2017-09-15T09:04:22.300Z,51.31
2017-09-15T09:05:22.247Z,54.83
2017-09-15T09:06:22.232Z,56.54
2017-09-15T09:07:22.272Z,58.25
2017-09-15T09:08:22.219Z,60.06
2017-09-15T09:09:22.204Z,56.54
2017-09-15T09:10:22.199Z,55.81
2017-09-15T09:11:22.185Z,52.86
2017-09-15T09:12:22.226Z,51.62
2017-09-15T09:13:22.164Z,52.10
2017-09-15T09:14:22.155Z,51.75
2017-09-15T09:15:22.143Z,53.08
2017-09-15T09:16:22.133Z,52.70
2017-09-15T09:17:22.175Z,51.37
2017-09-15T09:18:22.124Z,50.99
2017-09-15T09:19:22.104Z,52.92
2017-09-15T09:20:22.144Z,53.67
2017-09-15T09:21:22.087Z,53.96
2017-09-15T09:22:22.121Z,54.72
2017-09-15T09:23:22.063Z,55.65
2017-09-15T09:24:22.053Z,54.98
2017-09-15T09:25:22.042Z,57.84
2017-09-15T09:26:22.031Z,56.98
2017-09-15T09:27:22.019Z,59.45
2017-09-15T09:28:22.009Z,54.50
2017-09-15T09:29:22.000Z,52.32
2017-09-15T09:30:22.038Z,54.35
2017-09-15T09:31:21.977Z,55.77
2017-09-15T09:32:21.967Z,54.47
2017-09-15T09:33:21.962Z,49.90
2017-09-15T09:34:21.950Z,49.51
2017-09-15T09:35:21.985Z,48.37
2017-09-15T09:36:21.975Z,48.54
2017-09-15T09:37:21.914Z,51.10
2017-09-15T09:38:21.908Z,52.98
2017-09-15T09:39:21.891Z,55.01
2017-09-15T09:40:21.932Z,52.41
2017-09-15T09:41:21.871Z,51.68
2017-09-15T09:42:21.887Z,51.37
2017-09-15T09:43:21.853Z,50.06
2017-09-15T09:44:21.836Z,52.13
2017-09-15T09:45:21.826Z,53.08
2017-09-15T09:46:21.871Z,54.60
2017-09-15T09:47:21.804Z,56.60
2017-09-15T09:48:21.793Z,56.60
2017-09-15T09:49:21.782Z,55.65
2017-09-15T09:50:21.776Z,54.79
2017-09-15T09:51:21.809Z,51.65
2017-09-15T09:52:21.747Z,52.32
2017-09-15T09:53:21.783Z,53.17
2017-09-15T09:54:21.724Z,55.55
2017-09-15T09:55:21.718Z,55.39
2017-09-15T09:56:21.752Z,52.34
2017-09-15T09:57:21.727Z,52.92
2017-09-15T09:58:21.679Z,54.15
2017-09-15T09:59:21.673Z,54.72
2017-09-15T10:00:21.659Z,57.39
2017-09-15T10:01:21.646Z,52.72
2017-09-15T10:02:21.634Z,52.44
2017-09-15T10:03:21.623Z,56.15
2017-09-15T10:04:21.662Z,57.10
2017-09-15T10:05:21.602Z,57.20
2017-09-15T10:06:21.588Z,57.20
2017-09-15T10:07:21.578Z,56.63
2017-09-15T10:08:21.566Z,55.77
2017-09-15T10:09:21.556Z,53.08
2017-09-15T10:10:21.541Z,54.41
2017-09-15T10:11:21.533Z,54.32
2017-09-15T10:12:21.574Z,57.17
2017-09-15T10:13:21.513Z,54.69
2017-09-15T10:14:21.496Z,53.55
2017-09-15T10:15:21.534Z,52.98
2017-09-15T10:16:21.472Z,52.98
2017-09-15T10:17:21.461Z,52.70
2017-09-15T10:18:21.454Z,54.98
2017-09-15T10:19:21.443Z,56.22
2017-09-15T10:20:21.427Z,56.79
2017-09-15T10:21:21.414Z,54.79
2017-09-15T10:22:21.453Z,55.46
2017-09-15T10:23:21.390Z,53.65
2017-09-15T10:24:21.379Z,56.79
2017-09-15T10:25:21.367Z,59.17
2017-09-15T10:26:21.356Z,59.55
2017-09-15T10:27:21.404Z,59.93
2017-09-15T10:28:21.333Z,58.22
2017-09-15T10:29:21.320Z,59.17
2017-09-15T10:30:21.309Z,56.22
2017-09-15T10:31:21.296Z,54.98
2017-09-15T10:32:21.335Z,56.41
2017-09-15T10:33:21.273Z,56.41
2017-09-15T10:34:21.261Z,54.89
2017-09-15T10:35:21.249Z,55.55
2017-09-15T10:36:21.244Z,56.60
2017-09-15T10:37:21.276Z,56.79
2017-09-15T10:38:21.214Z,56.98
2017-09-15T10:39:21.201Z,56.48
2017-09-15T10:40:21.191Z,57.81
2017-09-15T10:41:21.180Z,56.10
2017-09-15T10:42:21.167Z,53.63
2017-09-15T10:43:21.210Z,54.98
2017-09-15T10:44:21.198Z,53.91
2017-09-15T10:45:21.130Z,53.63
2017-09-15T10:46:21.119Z,52.48
2017-09-15T10:47:21.108Z,54.19
2017-09-15T10:48:21.100Z,52.29
2017-09-15T10:49:21.088Z,52.10
2017-09-15T10:50:21.119Z,52.29
2017-09-15T10:51:21.064Z,50.77
2017-09-15T10:52:21.046Z,51.72
2017-09-15T10:53:21.040Z,52.96
2017-09-15T10:54:21.023Z,52.48
2017-09-15T10:55:21.060Z,52.96
2017-09-15T10:56:20.996Z,53.24
2017-09-15T10:57:20.992Z,56.00
2017-09-15T10:58:20.972Z,59.33
2017-09-15T10:59:20.960Z,59.42
2017-09-15T11:00:20.998Z,59.05
2017-09-15T11:01:20.936Z,59.05
2017-09-15T11:02:20.921Z,59.42
2017-09-15T11:03:20.915Z,59.23
2017-09-15T11:04:20.899Z,61.71
2017-09-15T11:05:21.035Z,60.75
2017-09-15T11:06:20.883Z,61.32
2017-09-15T11:07:21.051Z,60.75
2017-09-15T11:08:20.920Z,61.32
2017-09-15T11:09:20.927Z,62.85
2017-09-15T11:10:20.923Z,62.56
2017-09-15T11:11:20.921Z,62.59
2017-09-15T11:12:20.969Z,62.30
2017-09-15T11:13:20.787Z,59.17
2017-09-15T11:14:20.954Z,56.79
2017-09-15T11:15:20.843Z,57.14
2017-09-15T11:16:20.840Z,56.29
2017-09-15T11:17:20.839Z,57.04
2017-09-15T11:18:20.774Z,57.71
2017-09-15T11:19:20.717Z,59.80
2017-09-15T11:20:20.699Z,61.80
2017-09-15T11:21:20.692Z,60.38
2017-09-15T11:22:20.673Z,59.80
2017-09-15T11:23:20.660Z,59.74
2017-09-15T11:24:20.650Z,58.40
2017-09-15T11:25:20.636Z,54.32
2017-09-15T11:26:20.674Z,52.89
2017-09-15T11:27:20.611Z,54.13
2017-09-15T11:28:20.600Z,55.93
2017-09-15T11:29:20.618Z,56.51
2017-09-15T11:30:20.577Z,54.79
2017-09-15T11:31:20.616Z,55.36
2017-09-15T11:32:20.551Z,54.89
2017-09-15T11:33:20.545Z,55.46
2017-09-15T11:34:20.527Z,56.31
2017-09-15T11:35:20.515Z,58.31
2017-09-15T11:36:20.557Z,59.07
2017-09-15T11:37:20.490Z,57.74
2017-09-15T11:38:20.482Z,58.59
2017-09-15T11:39:20.465Z,57.84
2017-09-15T11:40:20.454Z,57.96
2017-09-15T11:41:20.491Z,57.77
2017-09-15T11:42:20.483Z,58.15
2017-09-15T11:43:20.422Z,59.48
2017-09-15T11:44:20.406Z,59.48
2017-09-15T11:45:20.393Z,60.24
2017-09-15T11:46:20.386Z,59.17
2017-09-15T11:47:20.432Z,59.27
2017-09-15T11:48:20.417Z,59.45
2017-09-15T11:49:20.370Z,57.17
2017-09-15T11:50:20.346Z,56.72
2017-09-15T11:51:20.329Z,58.12
2017-09-15T11:52:20.370Z,59.17
2017-09-15T11:53:20.304Z,59.29
2017-09-15T11:54:20.304Z,60.63
2017-09-15T11:55:20.287Z,58.88
2017-09-15T11:56:20.264Z,56.98
2017-09-15T11:57:20.263Z,57.84
2017-09-15T11:58:20.244Z,59.29
2017-09-15T11:59:20.284Z,58.59
2017-09-15T12:00:20.282Z,57.65
2017-09-15T12:01:20.220Z,56.98
2017-09-15T12:02:20.266Z,56.41
2017-09-15T12:03:20.185Z,56.31
2017-09-15T12:04:20.246Z,56.51
2017-09-15T12:05:20.240Z,56.79
2017-09-15T12:06:20.138Z,57.45
2017-09-15T12:07:20.134Z,59.39
2017-09-15T12:08:20.114Z,59.86
2017-09-15T12:09:20.108Z,58.34
2017-09-15T12:10:20.145Z,59.29
2017-09-15T12:11:20.079Z,59.29
2017-09-15T12:12:20.067Z,58.34
2017-09-15T12:13:20.055Z,59.20
2017-09-15T12:14:20.043Z,57.70
2017-09-15T12:15:20.037Z,57.13
2017-09-15T12:16:20.025Z,56.09
2017-09-15T12:17:20.015Z,56.09
2017-09-15T12:18:19.996Z,55.80
2017-09-15T12:19:19.986Z,56.56
2017-09-15T12:20:20.022Z,55.68
2017-09-15T12:21:19.962Z,57.80
2017-09-15T12:22:19.950Z,57.04
2017-09-15T12:23:19.939Z,58.37
2017-09-15T12:24:19.932Z,58.02
2017-09-15T12:25:19.965Z,56.49
2017-09-15T12:26:19.904Z,57.07
2017-09-15T12:27:19.892Z,58.50
2017-09-15T12:28:19.880Z,57.64
2017-09-15T12:29:19.870Z,57.07
2017-09-15T12:30:19.908Z,55.42
2017-09-15T12:31:19.852Z,54.85
2017-09-15T12:32:19.836Z,56.65
2017-09-15T12:33:19.824Z,57.89
2017-09-15T12:34:19.813Z,57.32
2017-09-15T12:35:19.857Z,57.51
2017-09-15T12:36:19.839Z,55.90
2017-09-15T12:37:19.778Z,56.09
2017-09-15T12:38:19.768Z,58.47
2017-09-15T12:39:19.755Z,59.51
2017-09-15T12:40:19.748Z,59.61
2017-09-15T12:41:19.782Z,57.01
2017-09-15T12:42:19.776Z,57.42
2017-09-15T12:43:19.709Z,58.18
2017-09-15T12:44:19.697Z,57.29
2017-09-15T12:45:19.686Z,58.53
2017-09-15T12:46:19.673Z,59.58
2017-09-15T12:47:19.713Z,59.70
2017-09-15T12:48:19.651Z,59.58
2017-09-15T12:49:19.638Z,57.99
2017-09-15T12:50:19.683Z,59.13
2017-09-15T12:51:19.616Z,58.28
2017-09-15T12:52:19.604Z,57.32